sensor_id;sensor_type;location;lat;lon;timestamp;P1;durP1;ratioP1;P2;durP2;ratioP2
66927;SDS011;59882;45.624;11.698;2023-06-22T00:00:50;31.83;;;28.43;;
66927;SDS011;59882;45.624;11.698;2023-06-22T00:03:20;35.42;;;30.48;;
66927;SDS011;59882;45.624;11.698;2023-06-22T00:05:47;34.58;;;30.13;;
66927;SDS011;59882;45.624;11.698;2023-06-22T00:08:13;32.30;;;28.98;;
66927;SDS011;59882;45.624;11.698;2023-06-22T00:10:39;34.75;;;30.35;;
66927;SDS011;59882;45.624;11.698;2023-06-22T00:13:06;38.07;;;28.80;;
66927;SDS011;59882;45.624;11.698;2023-06-22T00:15:33;33.72;;;29.13;;
66927;SDS011;59882;45.624;11.698;2023-06-22T00:17:59;31.35;;;27.60;;
66927;SDS011;59882;45.624;11.698;2023-06-22T00:20:25;29.67;;;25.92;;
66927;SDS011;59882;45.624;11.698;2023-06-22T00:22:55;31.40;;;28.05;;
66927;SDS011;59882;45.624;11.698;2023-06-22T00:25:21;32.23;;;28.83;;
66927;SDS011;59882;45.624;11.698;2023-06-22T00:27:48;34.53;;;30.25;;
66927;SDS011;59882;45.624;11.698;2023-06-22T00:30:15;34.58;;;30.75;;
66927;SDS011;59882;45.624;11.698;2023-06-22T00:32:42;33.85;;;30.45;;
66927;SDS011;59882;45.624;11.698;2023-06-22T00:35:08;36.20;;;31.25;;
66927;SDS011;59882;45.624;11.698;2023-06-22T00:37:35;32.67;;;29.30;;
66927;SDS011;59882;45.624;11.698;2023-06-22T00:40:01;31.70;;;28.30;;
66927;SDS011;59882;45.624;11.698;2023-06-22T00:42:28;32.58;;;29.13;;
66927;SDS011;59882;45.624;11.698;2023-06-22T00:44:54;37.35;;;30.20;;
66927;SDS011;59882;45.624;11.698;2023-06-22T00:47:20;34.33;;;28.63;;
66927;SDS011;59882;45.624;11.698;2023-06-22T00:49:47;33.63;;;29.90;;
66927;SDS011;59882;45.624;11.698;2023-06-22T00:52:16;32.95;;;29.55;;
66927;SDS011;59882;45.624;11.698;2023-06-22T00:54:50;30.70;;;27.60;;
66927;SDS011;59882;45.624;11.698;2023-06-22T00:57:17;33.08;;;29.63;;
66927;SDS011;59882;45.624;11.698;2023-06-22T00:59:44;38.10;;;32.05;;
66927;SDS011;59882;45.624;11.698;2023-06-22T01:02:10;33.58;;;29.95;;
66927;SDS011;59882;45.624;11.698;2023-06-22T01:04:37;38.60;;;32.92;;
66927;SDS011;59882;45.624;11.698;2023-06-22T01:10:16;39.03;;;34.90;;
66927;SDS011;59882;45.624;11.698;2023-06-22T01:12:55;40.22;;;35.92;;
66927;SDS011;59882;45.624;11.698;2023-06-22T01:15:45;42.15;;;36.17;;
66927;SDS011;59882;45.624;11.698;2023-06-22T01:18:18;47.08;;;36.72;;
66927;SDS011;59882;45.624;11.698;2023-06-22T01:20:51;43.10;;;37.67;;
66927;SDS011;59882;45.624;11.698;2023-06-22T01:26:17;41.15;;;36.63;;
66927;SDS011;59882;45.624;11.698;2023-06-22T01:29:03;46.88;;;39.20;;
66927;SDS011;59882;45.624;11.698;2023-06-22T01:31:31;38.10;;;34.00;;
66927;SDS011;59882;45.624;11.698;2023-06-22T01:34:01;41.67;;;37.10;;
66927;SDS011;59882;45.624;11.698;2023-06-22T01:36:30;41.65;;;37.17;;
66927;SDS011;59882;45.624;11.698;2023-06-22T01:38:57;39.20;;;34.42;;
66927;SDS011;59882;45.624;11.698;2023-06-22T01:41:26;39.08;;;35.05;;
66927;SDS011;59882;45.624;11.698;2023-06-22T01:43:54;40.90;;;35.80;;
66927;SDS011;59882;45.624;11.698;2023-06-22T01:46:21;40.63;;;34.93;;
66927;SDS011;59882;45.624;11.698;2023-06-22T01:48:47;37.22;;;33.28;;
66927;SDS011;59882;45.624;11.698;2023-06-22T01:51:14;38.67;;;34.58;;
66927;SDS011;59882;45.624;11.698;2023-06-22T01:53:40;36.80;;;33.08;;
66927;SDS011;59882;45.624;11.698;2023-06-22T01:56:06;37.75;;;33.05;;
66927;SDS011;59882;45.624;11.698;2023-06-22T01:58:32;37.67;;;33.87;;
66927;SDS011;59882;45.624;11.698;2023-06-22T02:01:00;37.65;;;33.33;;
66927;SDS011;59882;45.624;11.698;2023-06-22T02:03:37;38.67;;;34.42;;
66927;SDS011;59882;45.624;11.698;2023-06-22T02:06:08;40.17;;;34.65;;
66927;SDS011;59882;45.624;11.698;2023-06-22T02:08:51;38.85;;;34.70;;
66927;SDS011;59882;45.624;11.698;2023-06-22T02:11:21;38.63;;;34.63;;
66927;SDS011;59882;45.624;11.698;2023-06-22T02:13:47;40.20;;;36.15;;
66927;SDS011;59882;45.624;11.698;2023-06-22T02:16:14;40.92;;;36.55;;
66927;SDS011;59882;45.624;11.698;2023-06-22T02:18:48;42.20;;;35.35;;
66927;SDS011;59882;45.624;11.698;2023-06-22T02:21:17;40.63;;;35.80;;
66927;SDS011;59882;45.624;11.698;2023-06-22T02:23:43;39.87;;;35.60;;
66927;SDS011;59882;45.624;11.698;2023-06-22T02:26:09;41.35;;;36.95;;
66927;SDS011;59882;45.624;11.698;2023-06-22T02:28:35;38.77;;;34.73;;
66927;SDS011;59882;45.624;11.698;2023-06-22T02:31:01;39.97;;;35.65;;
66927;SDS011;59882;45.624;11.698;2023-06-22T02:33:26;43.20;;;36.17;;
66927;SDS011;59882;45.624;11.698;2023-06-22T02:35:52;42.53;;;37.53;;
66927;SDS011;59882;45.624;11.698;2023-06-22T02:38:18;46.22;;;37.65;;
66927;SDS011;59882;45.624;11.698;2023-06-22T02:40:45;43.17;;;35.67;;
66927;SDS011;59882;45.624;11.698;2023-06-22T02:43:11;41.55;;;35.53;;
66927;SDS011;59882;45.624;11.698;2023-06-22T02:45:37;39.42;;;35.35;;
66927;SDS011;59882;45.624;11.698;2023-06-22T02:48:03;38.23;;;33.67;;
66927;SDS011;59882;45.624;11.698;2023-06-22T02:50:29;37.03;;;32.55;;
66927;SDS011;59882;45.624;11.698;2023-06-22T02:52:55;37.78;;;33.25;;
66927;SDS011;59882;45.624;11.698;2023-06-22T02:55:20;35.73;;;30.77;;
66927;SDS011;59882;45.624;11.698;2023-06-22T02:57:46;39.50;;;32.60;;
66927;SDS011;59882;45.624;11.698;2023-06-22T03:00:13;35.80;;;29.43;;
66927;SDS011;59882;45.624;11.698;2023-06-22T03:02:52;37.40;;;32.05;;
66927;SDS011;59882;45.624;11.698;2023-06-22T03:05:17;38.70;;;33.80;;
66927;SDS011;59882;45.624;11.698;2023-06-22T03:07:44;38.15;;;33.22;;
66927;SDS011;59882;45.624;11.698;2023-06-22T03:10:10;38.75;;;34.65;;
66927;SDS011;59882;45.624;11.698;2023-06-22T03:12:37;36.90;;;32.90;;
66927;SDS011;59882;45.624;11.698;2023-06-22T03:15:07;39.97;;;35.65;;
66927;SDS011;59882;45.624;11.698;2023-06-22T03:17:34;43.20;;;36.00;;
66927;SDS011;59882;45.624;11.698;2023-06-22T03:20:01;42.28;;;36.15;;
66927;SDS011;59882;45.624;11.698;2023-06-22T03:22:34;37.25;;;33.28;;
66927;SDS011;59882;45.624;11.698;2023-06-22T03:25:00;37.50;;;31.83;;
66927;SDS011;59882;45.624;11.698;2023-06-22T03:27:26;40.63;;;35.25;;
66927;SDS011;59882;45.624;11.698;2023-06-22T03:29:52;36.38;;;32.45;;
66927;SDS011;59882;45.624;11.698;2023-06-22T03:32:18;37.47;;;31.93;;
66927;SDS011;59882;45.624;11.698;2023-06-22T03:34:43;38.97;;;34.25;;
66927;SDS011;59882;45.624;11.698;2023-06-22T03:37:12;40.27;;;33.90;;
66927;SDS011;59882;45.624;11.698;2023-06-22T03:39:39;42.92;;;35.38;;
66927;SDS011;59882;45.624;11.698;2023-06-22T03:42:05;38.75;;;34.58;;
66927;SDS011;59882;45.624;11.698;2023-06-22T03:44:31;40.83;;;36.38;;
66927;SDS011;59882;45.624;11.698;2023-06-22T03:46:56;43.43;;;36.70;;
66927;SDS011;59882;45.624;11.698;2023-06-22T03:49:22;42.00;;;37.13;;
66927;SDS011;59882;45.624;11.698;2023-06-22T03:51:47;41.10;;;36.55;;
66927;SDS011;59882;45.624;11.698;2023-06-22T03:54:13;40.27;;;35.97;;
66927;SDS011;59882;45.624;11.698;2023-06-22T03:56:39;42.53;;;36.53;;
66927;SDS011;59882;45.624;11.698;2023-06-22T03:59:04;41.97;;;37.53;;
66927;SDS011;59882;45.624;11.698;2023-06-22T04:01:30;47.67;;;42.53;;
66927;SDS011;59882;45.624;11.698;2023-06-22T04:03:55;49.03;;;41.03;;
66927;SDS011;59882;45.624;11.698;2023-06-22T04:06:21;51.73;;;42.50;;
66927;SDS011;59882;45.624;11.698;2023-06-22T04:08:47;49.10;;;43.35;;
66927;SDS011;59882;45.624;11.698;2023-06-22T04:11:16;48.30;;;43.05;;
66927;SDS011;59882;45.624;11.698;2023-06-22T04:13:42;46.88;;;41.75;;
66927;SDS011;59882;45.624;11.698;2023-06-22T04:16:08;48.00;;;42.53;;
66927;SDS011;59882;45.624;11.698;2023-06-22T04:18:34;51.97;;;43.73;;
66927;SDS011;59882;45.624;11.698;2023-06-22T04:20:59;47.70;;;40.73;;
66927;SDS011;59882;45.624;11.698;2023-06-22T04:23:25;47.43;;;39.50;;
66927;SDS011;59882;45.624;11.698;2023-06-22T04:25:50;43.28;;;37.70;;
66927;SDS011;59882;45.624;11.698;2023-06-22T04:28:16;44.37;;;39.37;;
66927;SDS011;59882;45.624;11.698;2023-06-22T04:30:42;44.50;;;38.60;;
66927;SDS011;59882;45.624;11.698;2023-06-22T04:33:14;45.10;;;39.22;;
66927;SDS011;59882;45.624;11.698;2023-06-22T04:35:40;44.47;;;39.53;;
66927;SDS011;59882;45.624;11.698;2023-06-22T04:38:08;48.27;;;40.03;;
66927;SDS011;59882;45.624;11.698;2023-06-22T04:40:34;47.65;;;39.65;;
66927;SDS011;59882;45.624;11.698;2023-06-22T04:43:00;46.27;;;37.33;;
66927;SDS011;59882;45.624;11.698;2023-06-22T04:45:27;46.10;;;38.60;;
66927;SDS011;59882;45.624;11.698;2023-06-22T04:47:54;43.03;;;36.63;;
66927;SDS011;59882;45.624;11.698;2023-06-22T04:50:20;45.83;;;38.55;;
66927;SDS011;59882;45.624;11.698;2023-06-22T04:52:47;44.63;;;37.67;;
66927;SDS011;59882;45.624;11.698;2023-06-22T04:55:13;44.83;;;36.58;;
66927;SDS011;59882;45.624;11.698;2023-06-22T04:57:46;44.92;;;36.55;;
66927;SDS011;59882;45.624;11.698;2023-06-22T05:00:16;45.97;;;35.35;;
66927;SDS011;59882;45.624;11.698;2023-06-22T05:02:44;45.30;;;37.80;;
66927;SDS011;59882;45.624;11.698;2023-06-22T05:05:11;42.70;;;36.73;;
66927;SDS011;59882;45.624;11.698;2023-06-22T05:07:45;43.85;;;36.67;;
66927;SDS011;59882;45.624;11.698;2023-06-22T05:10:13;42.67;;;35.15;;
66927;SDS011;59882;45.624;11.698;2023-06-22T05:12:40;42.78;;;34.08;;
66927;SDS011;59882;45.624;11.698;2023-06-22T05:15:09;39.28;;;32.85;;
66927;SDS011;59882;45.624;11.698;2023-06-22T05:17:35;45.57;;;35.73;;
66927;SDS011;59882;45.624;11.698;2023-06-22T05:20:06;44.40;;;35.35;;
66927;SDS011;59882;45.624;11.698;2023-06-22T05:22:32;39.15;;;32.92;;
66927;SDS011;59882;45.624;11.698;2023-06-22T05:24:58;45.07;;;34.13;;
66927;SDS011;59882;45.624;11.698;2023-06-22T05:27:23;40.72;;;34.83;;
66927;SDS011;59882;45.624;11.698;2023-06-22T05:29:49;43.33;;;36.60;;
66927;SDS011;59882;45.624;11.698;2023-06-22T05:32:15;39.47;;;34.70;;
66927;SDS011;59882;45.624;11.698;2023-06-22T05:34:40;39.73;;;33.63;;
66927;SDS011;59882;45.624;11.698;2023-06-22T05:37:06;46.35;;;34.85;;
66927;SDS011;59882;45.624;11.698;2023-06-22T05:39:34;40.67;;;33.13;;
66927;SDS011;59882;45.624;11.698;2023-06-22T05:42:02;40.10;;;29.30;;
66927;SDS011;59882;45.624;11.698;2023-06-22T05:44:31;38.92;;;32.90;;
66927;SDS011;59882;45.624;11.698;2023-06-22T05:46:58;42.95;;;31.00;;
66927;SDS011;59882;45.624;11.698;2023-06-22T05:49:24;40.57;;;31.87;;
66927;SDS011;59882;45.624;11.698;2023-06-22T05:51:54;39.97;;;29.73;;
66927;SDS011;59882;45.624;11.698;2023-06-22T05:54:21;35.22;;;31.42;;
66927;SDS011;59882;45.624;11.698;2023-06-22T05:56:47;35.30;;;31.27;;
66927;SDS011;59882;45.624;11.698;2023-06-22T05:59:13;39.70;;;31.70;;
66927;SDS011;59882;45.624;11.698;2023-06-22T06:01:38;36.67;;;30.53;;
66927;SDS011;59882;45.624;11.698;2023-06-22T06:04:05;35.67;;;28.75;;
66927;SDS011;59882;45.624;11.698;2023-06-22T06:06:33;36.05;;;30.73;;
66927;SDS011;59882;45.624;11.698;2023-06-22T06:08:59;37.03;;;30.50;;
66927;SDS011;59882;45.624;11.698;2023-06-22T06:11:25;41.05;;;29.85;;
66927;SDS011;59882;45.624;11.698;2023-06-22T06:13:51;35.60;;;26.80;;
66927;SDS011;59882;45.624;11.698;2023-06-22T06:16:17;35.53;;;28.20;;
66927;SDS011;59882;45.624;11.698;2023-06-22T06:18:42;32.43;;;27.23;;
66927;SDS011;59882;45.624;11.698;2023-06-22T06:21:08;34.00;;;28.83;;
66927;SDS011;59882;45.624;11.698;2023-06-22T06:23:34;34.45;;;26.42;;
66927;SDS011;59882;45.624;11.698;2023-06-22T06:25:59;32.73;;;27.87;;
66927;SDS011;59882;45.624;11.698;2023-06-22T06:28:26;36.03;;;28.95;;
66927;SDS011;59882;45.624;11.698;2023-06-22T06:30:52;33.20;;;26.15;;
66927;SDS011;59882;45.624;11.698;2023-06-22T06:33:18;35.17;;;28.13;;
66927;SDS011;59882;45.624;11.698;2023-06-22T06:35:45;30.87;;;27.33;;
66927;SDS011;59882;45.624;11.698;2023-06-22T06:38:11;32.05;;;27.48;;
66927;SDS011;59882;45.624;11.698;2023-06-22T06:40:37;35.57;;;28.50;;
66927;SDS011;59882;45.624;11.698;2023-06-22T06:43:02;37.03;;;28.05;;
66927;SDS011;59882;45.624;11.698;2023-06-22T06:45:28;31.43;;;27.43;;
66927;SDS011;59882;45.624;11.698;2023-06-22T06:47:56;31.48;;;27.23;;
66927;SDS011;59882;45.624;11.698;2023-06-22T06:50:22;32.60;;;27.87;;
66927;SDS011;59882;45.624;11.698;2023-06-22T06:52:47;33.17;;;27.45;;
66927;SDS011;59882;45.624;11.698;2023-06-22T06:55:15;35.53;;;28.67;;
66927;SDS011;59882;45.624;11.698;2023-06-22T06:57:41;39.57;;;27.03;;
66927;SDS011;59882;45.624;11.698;2023-06-22T07:00:07;36.90;;;27.45;;
66927;SDS011;59882;45.624;11.698;2023-06-22T07:02:44;34.88;;;28.27;;
66927;SDS011;59882;45.624;11.698;2023-06-22T07:05:12;35.55;;;28.23;;
66927;SDS011;59882;45.624;11.698;2023-06-22T07:07:38;34.13;;;27.83;;
66927;SDS011;59882;45.624;11.698;2023-06-22T07:10:05;32.00;;;24.90;;
66927;SDS011;59882;45.624;11.698;2023-06-22T07:12:31;37.47;;;26.57;;
66927;SDS011;59882;45.624;11.698;2023-06-22T07:15:03;35.58;;;26.73;;
66927;SDS011;59882;45.624;11.698;2023-06-22T07:17:30;31.17;;;25.70;;
66927;SDS011;59882;45.624;11.698;2023-06-22T07:19:56;29.80;;;25.90;;
66927;SDS011;59882;45.624;11.698;2023-06-22T07:22:22;33.03;;;25.27;;
66927;SDS011;59882;45.624;11.698;2023-06-22T07:24:47;34.20;;;25.67;;
66927;SDS011;59882;45.624;11.698;2023-06-22T07:27:14;34.85;;;26.90;;
66927;SDS011;59882;45.624;11.698;2023-06-22T07:29:43;33.08;;;27.80;;
66927;SDS011;59882;45.624;11.698;2023-06-22T07:32:08;31.33;;;26.20;;
66927;SDS011;59882;45.624;11.698;2023-06-22T07:34:34;32.78;;;26.88;;
66927;SDS011;59882;45.624;11.698;2023-06-22T07:37:00;32.13;;;26.90;;
66927;SDS011;59882;45.624;11.698;2023-06-22T07:39:25;33.47;;;28.42;;
66927;SDS011;59882;45.624;11.698;2023-06-22T07:41:51;31.87;;;27.43;;
66927;SDS011;59882;45.624;11.698;2023-06-22T07:44:18;32.83;;;28.27;;
66927;SDS011;59882;45.624;11.698;2023-06-22T07:46:44;31.17;;;26.02;;
66927;SDS011;59882;45.624;11.698;2023-06-22T07:49:09;30.63;;;27.13;;
66927;SDS011;59882;45.624;11.698;2023-06-22T07:51:35;28.83;;;24.45;;
66927;SDS011;59882;45.624;11.698;2023-06-22T07:54:00;31.20;;;23.40;;
66927;SDS011;59882;45.624;11.698;2023-06-22T07:56:26;37.30;;;25.90;;
66927;SDS011;59882;45.624;11.698;2023-06-22T07:58:52;27.10;;;24.00;;
66927;SDS011;59882;45.624;11.698;2023-06-22T08:01:18;28.58;;;23.35;;
66927;SDS011;59882;45.624;11.698;2023-06-22T08:03:46;31.23;;;26.90;;
66927;SDS011;59882;45.624;11.698;2023-06-22T08:06:13;31.48;;;25.95;;
66927;SDS011;59882;45.624;11.698;2023-06-22T08:08:39;31.95;;;25.02;;
66927;SDS011;59882;45.624;11.698;2023-06-22T08:11:05;32.78;;;24.40;;
66927;SDS011;59882;45.624;11.698;2023-06-22T08:13:31;28.93;;;25.60;;
66927;SDS011;59882;45.624;11.698;2023-06-22T08:15:56;29.38;;;24.13;;
66927;SDS011;59882;45.624;11.698;2023-06-22T08:18:22;30.27;;;22.80;;
66927;SDS011;59882;45.624;11.698;2023-06-22T08:20:48;29.90;;;24.20;;
66927;SDS011;59882;45.624;11.698;2023-06-22T08:23:14;32.40;;;24.77;;
66927;SDS011;59882;45.624;11.698;2023-06-22T08:25:40;30.17;;;23.90;;
66927;SDS011;59882;45.624;11.698;2023-06-22T08:28:05;31.60;;;25.48;;
66927;SDS011;59882;45.624;11.698;2023-06-22T08:30:32;29.77;;;21.23;;
66927;SDS011;59882;45.624;11.698;2023-06-22T08:32:57;29.38;;;23.67;;
66927;SDS011;59882;45.624;11.698;2023-06-22T08:35:23;29.03;;;21.80;;
66927;SDS011;59882;45.624;11.698;2023-06-22T08:37:49;32.47;;;23.02;;
66927;SDS011;59882;45.624;11.698;2023-06-22T08:40:18;26.95;;;20.23;;
66927;SDS011;59882;45.624;11.698;2023-06-22T08:42:45;27.35;;;20.83;;
66927;SDS011;59882;45.624;11.698;2023-06-22T08:45:11;30.07;;;19.90;;
66927;SDS011;59882;45.624;11.698;2023-06-22T08:47:37;29.05;;;19.60;;
66927;SDS011;59882;45.624;11.698;2023-06-22T08:50:03;26.08;;;18.92;;
66927;SDS011;59882;45.624;11.698;2023-06-22T08:52:29;27.33;;;17.55;;
66927;SDS011;59882;45.624;11.698;2023-06-22T08:54:55;22.33;;;17.13;;
66927;SDS011;59882;45.624;11.698;2023-06-22T08:57:21;31.40;;;20.75;;
66927;SDS011;59882;45.624;11.698;2023-06-22T08:59:47;22.58;;;19.17;;
66927;SDS011;59882;45.624;11.698;2023-06-22T09:02:12;28.90;;;21.07;;
66927;SDS011;59882;45.624;11.698;2023-06-22T09:04:38;34.55;;;25.38;;
66927;SDS011;59882;45.624;11.698;2023-06-22T09:07:04;27.53;;;21.87;;
66927;SDS011;59882;45.624;11.698;2023-06-22T09:09:30;24.05;;;19.80;;
66927;SDS011;59882;45.624;11.698;2023-06-22T09:11:55;34.73;;;21.80;;
66927;SDS011;59882;45.624;11.698;2023-06-22T09:14:21;29.73;;;19.70;;
66927;SDS011;59882;45.624;11.698;2023-06-22T09:16:47;26.37;;;17.90;;
66927;SDS011;59882;45.624;11.698;2023-06-22T09:19:12;30.75;;;19.88;;
66927;SDS011;59882;45.624;11.698;2023-06-22T09:21:38;29.00;;;19.50;;
66927;SDS011;59882;45.624;11.698;2023-06-22T09:24:04;23.47;;;16.03;;
66927;SDS011;59882;45.624;11.698;2023-06-22T09:26:30;21.58;;;15.95;;
66927;SDS011;59882;45.624;11.698;2023-06-22T09:28:55;20.30;;;13.57;;
66927;SDS011;59882;45.624;11.698;2023-06-22T09:31:21;23.30;;;14.27;;
66927;SDS011;59882;45.624;11.698;2023-06-22T09:33:51;19.15;;;12.35;;
66927;SDS011;59882;45.624;11.698;2023-06-22T09:36:18;16.85;;;11.60;;
66927;SDS011;59882;45.624;11.698;2023-06-22T09:38:43;18.10;;;11.13;;
66927;SDS011;59882;45.624;11.698;2023-06-22T09:41:09;17.13;;;9.38;;
66927;SDS011;59882;45.624;11.698;2023-06-22T09:43:35;20.53;;;13.90;;
66927;SDS011;59882;45.624;11.698;2023-06-22T09:46:01;22.85;;;13.32;;
66927;SDS011;59882;45.624;11.698;2023-06-22T09:48:27;24.58;;;13.40;;
66927;SDS011;59882;45.624;11.698;2023-06-22T09:50:54;25.60;;;14.35;;
66927;SDS011;59882;45.624;11.698;2023-06-22T09:53:19;22.37;;;13.90;;
66927;SDS011;59882;45.624;11.698;2023-06-22T09:55:45;22.73;;;13.23;;
66927;SDS011;59882;45.624;11.698;2023-06-22T09:58:11;22.30;;;13.85;;
66927;SDS011;59882;45.624;11.698;2023-06-22T10:00:36;24.40;;;14.43;;
66927;SDS011;59882;45.624;11.698;2023-06-22T10:03:02;17.40;;;12.55;;
66927;SDS011;59882;45.624;11.698;2023-06-22T10:05:28;23.60;;;13.17;;
66927;SDS011;59882;45.624;11.698;2023-06-22T10:07:53;23.90;;;13.93;;
66927;SDS011;59882;45.624;11.698;2023-06-22T10:10:19;19.23;;;15.15;;
66927;SDS011;59882;45.624;11.698;2023-06-22T10:12:54;18.93;;;15.10;;
66927;SDS011;59882;45.624;11.698;2023-06-22T10:15:23;19.88;;;13.30;;
66927;SDS011;59882;45.624;11.698;2023-06-22T10:17:49;24.60;;;16.23;;
66927;SDS011;59882;45.624;11.698;2023-06-22T10:20:15;26.23;;;15.05;;
66927;SDS011;59882;45.624;11.698;2023-06-22T10:22:43;19.17;;;14.47;;
66927;SDS011;59882;45.624;11.698;2023-06-22T10:25:10;24.02;;;15.70;;
66927;SDS011;59882;45.624;11.698;2023-06-22T10:27:37;20.73;;;13.88;;
66927;SDS011;59882;45.624;11.698;2023-06-22T10:30:05;17.55;;;12.60;;
66927;SDS011;59882;45.624;11.698;2023-06-22T10:32:32;21.73;;;12.45;;
66927;SDS011;59882;45.624;11.698;2023-06-22T10:34:58;20.73;;;12.50;;
66927;SDS011;59882;45.624;11.698;2023-06-22T10:37:23;15.68;;;11.95;;
66927;SDS011;59882;45.624;11.698;2023-06-22T10:39:49;20.48;;;11.27;;
66927;SDS011;59882;45.624;11.698;2023-06-22T10:42:15;18.07;;;10.97;;
66927;SDS011;59882;45.624;11.698;2023-06-22T10:44:40;17.57;;;10.77;;
66927;SDS011;59882;45.624;11.698;2023-06-22T10:47:08;15.98;;;9.98;;
66927;SDS011;59882;45.624;11.698;2023-06-22T10:49:33;19.10;;;10.40;;
66927;SDS011;59882;45.624;11.698;2023-06-22T10:51:59;13.90;;;10.10;;
66927;SDS011;59882;45.624;11.698;2023-06-22T10:54:25;17.43;;;11.10;;
66927;SDS011;59882;45.624;11.698;2023-06-22T10:56:50;12.80;;;9.47;;
66927;SDS011;59882;45.624;11.698;2023-06-22T10:59:16;15.90;;;9.53;;
66927;SDS011;59882;45.624;11.698;2023-06-22T11:01:41;13.38;;;9.20;;
66927;SDS011;59882;45.624;11.698;2023-06-22T11:04:07;18.50;;;9.27;;
66927;SDS011;59882;45.624;11.698;2023-06-22T11:06:33;15.48;;;8.73;;
66927;SDS011;59882;45.624;11.698;2023-06-22T11:08:58;15.93;;;8.17;;
66927;SDS011;59882;45.624;11.698;2023-06-22T11:11:25;13.43;;;8.35;;
66927;SDS011;59882;45.624;11.698;2023-06-22T11:13:50;17.57;;;8.23;;
66927;SDS011;59882;45.624;11.698;2023-06-22T11:16:17;22.02;;;9.55;;
66927;SDS011;59882;45.624;11.698;2023-06-22T11:18:43;20.63;;;9.02;;
66927;SDS011;59882;45.624;11.698;2023-06-22T11:21:08;17.30;;;8.93;;
66927;SDS011;59882;45.624;11.698;2023-06-22T11:23:34;16.80;;;8.60;;
66927;SDS011;59882;45.624;11.698;2023-06-22T11:25:59;19.20;;;9.05;;
66927;SDS011;59882;45.624;11.698;2023-06-22T11:28:25;12.23;;;7.90;;
66927;SDS011;59882;45.624;11.698;2023-06-22T11:30:51;15.75;;;8.23;;
66927;SDS011;59882;45.624;11.698;2023-06-22T11:33:16;20.67;;;8.37;;
66927;SDS011;59882;45.624;11.698;2023-06-22T11:35:42;15.18;;;9.18;;
66927;SDS011;59882;45.624;11.698;2023-06-22T11:38:08;18.53;;;8.67;;
66927;SDS011;59882;45.624;11.698;2023-06-22T11:40:33;28.95;;;8.52;;
66927;SDS011;59882;45.624;11.698;2023-06-22T11:42:59;17.67;;;8.23;;
66927;SDS011;59882;45.624;11.698;2023-06-22T11:45:24;14.13;;;8.27;;
66927;SDS011;59882;45.624;11.698;2023-06-22T11:47:50;14.55;;;7.97;;
66927;SDS011;59882;45.624;11.698;2023-06-22T11:50:16;16.25;;;8.43;;
66927;SDS011;59882;45.624;11.698;2023-06-22T11:52:42;16.43;;;7.97;;
66927;SDS011;59882;45.624;11.698;2023-06-22T11:55:07;13.73;;;7.93;;
66927;SDS011;59882;45.624;11.698;2023-06-22T11:57:34;14.52;;;8.25;;
66927;SDS011;59882;45.624;11.698;2023-06-22T12:00:01;12.90;;;7.70;;
66927;SDS011;59882;45.624;11.698;2023-06-22T12:02:31;13.55;;;7.78;;
66927;SDS011;59882;45.624;11.698;2023-06-22T12:04:57;14.20;;;7.40;;
66927;SDS011;59882;45.624;11.698;2023-06-22T12:07:23;19.90;;;8.63;;
66927;SDS011;59882;45.624;11.698;2023-06-22T12:09:49;19.23;;;8.43;;
66927;SDS011;59882;45.624;11.698;2023-06-22T12:12:14;14.00;;;8.37;;
66927;SDS011;59882;45.624;11.698;2023-06-22T12:14:40;14.40;;;8.18;;
66927;SDS011;59882;45.624;11.698;2023-06-22T12:17:06;18.30;;;8.43;;
66927;SDS011;59882;45.624;11.698;2023-06-22T12:19:31;18.38;;;7.35;;
66927;SDS011;59882;45.624;11.698;2023-06-22T12:21:57;16.23;;;8.53;;
66927;SDS011;59882;45.624;11.698;2023-06-22T12:24:23;14.63;;;7.40;;
66927;SDS011;59882;45.624;11.698;2023-06-22T12:26:48;13.48;;;7.38;;
66927;SDS011;59882;45.624;11.698;2023-06-22T12:29:14;12.73;;;8.23;;
66927;SDS011;59882;45.624;11.698;2023-06-22T12:31:40;14.70;;;7.30;;
66927;SDS011;59882;45.624;11.698;2023-06-22T12:34:06;11.90;;;7.55;;
66927;SDS011;59882;45.624;11.698;2023-06-22T12:36:32;15.23;;;7.97;;
66927;SDS011;59882;45.624;11.698;2023-06-22T12:38:58;14.88;;;8.18;;
66927;SDS011;59882;45.624;11.698;2023-06-22T12:41:23;13.80;;;7.83;;
66927;SDS011;59882;45.624;11.698;2023-06-22T12:43:49;15.03;;;9.13;;
66927;SDS011;59882;45.624;11.698;2023-06-22T12:46:14;17.42;;;8.30;;
66927;SDS011;59882;45.624;11.698;2023-06-22T12:48:40;19.30;;;8.40;;
66927;SDS011;59882;45.624;11.698;2023-06-22T12:51:08;16.05;;;8.65;;
66927;SDS011;59882;45.624;11.698;2023-06-22T12:53:34;16.67;;;8.85;;
66927;SDS011;59882;45.624;11.698;2023-06-22T12:56:00;13.57;;;8.10;;
66927;SDS011;59882;45.624;11.698;2023-06-22T12:58:26;14.30;;;8.63;;
66927;SDS011;59882;45.624;11.698;2023-06-22T13:00:51;16.97;;;8.80;;
66927;SDS011;59882;45.624;11.698;2023-06-22T13:03:17;16.77;;;8.10;;
66927;SDS011;59882;45.624;11.698;2023-06-22T13:05:42;9.77;;;7.63;;
66927;SDS011;59882;45.624;11.698;2023-06-22T13:08:08;18.08;;;8.43;;
66927;SDS011;59882;45.624;11.698;2023-06-22T13:10:34;14.73;;;8.83;;
66927;SDS011;59882;45.624;11.698;2023-06-22T13:12:59;14.07;;;8.60;;
66927;SDS011;59882;45.624;11.698;2023-06-22T13:15:28;12.88;;;8.15;;
66927;SDS011;59882;45.624;11.698;2023-06-22T13:17:54;14.30;;;8.38;;
66927;SDS011;59882;45.624;11.698;2023-06-22T13:20:20;13.48;;;8.98;;
66927;SDS011;59882;45.624;11.698;2023-06-22T13:22:46;15.20;;;9.37;;
66927;SDS011;59882;45.624;11.698;2023-06-22T13:25:12;18.48;;;7.80;;
66927;SDS011;59882;45.624;11.698;2023-06-22T13:27:41;12.23;;;7.50;;
66927;SDS011;59882;45.624;11.698;2023-06-22T13:30:07;12.75;;;8.35;;
66927;SDS011;59882;45.624;11.698;2023-06-22T13:32:34;14.75;;;8.55;;
66927;SDS011;59882;45.624;11.698;2023-06-22T13:34:59;17.40;;;9.10;;
66927;SDS011;59882;45.624;11.698;2023-06-22T13:37:25;11.32;;;8.65;;
66927;SDS011;59882;45.624;11.698;2023-06-22T13:39:52;14.87;;;7.93;;
66927;SDS011;59882;45.624;11.698;2023-06-22T13:42:17;13.32;;;8.52;;
66927;SDS011;59882;45.624;11.698;2023-06-22T13:44:43;14.90;;;8.77;;
66927;SDS011;59882;45.624;11.698;2023-06-22T13:47:09;16.95;;;8.88;;
66927;SDS011;59882;45.624;11.698;2023-06-22T13:49:35;13.93;;;8.37;;
66927;SDS011;59882;45.624;11.698;2023-06-22T13:52:00;16.83;;;8.43;;
66927;SDS011;59882;45.624;11.698;2023-06-22T13:54:28;16.42;;;7.65;;
66927;SDS011;59882;45.624;11.698;2023-06-22T13:56:53;16.23;;;9.20;;
66927;SDS011;59882;45.624;11.698;2023-06-22T13:59:19;15.50;;;8.70;;
66927;SDS011;59882;45.624;11.698;2023-06-22T14:01:46;13.98;;;8.98;;
66927;SDS011;59882;45.624;11.698;2023-06-22T14:04:11;15.02;;;8.05;;
66927;SDS011;59882;45.624;11.698;2023-06-22T14:06:38;17.65;;;8.65;;
66927;SDS011;59882;45.624;11.698;2023-06-22T14:09:04;18.25;;;8.88;;
66927;SDS011;59882;45.624;11.698;2023-06-22T14:11:29;20.73;;;8.80;;
66927;SDS011;59882;45.624;11.698;2023-06-22T14:13:55;15.77;;;8.45;;